Time;durP1;ratioP1;P1;durP2;ratioP2;P2;SDS_P1;SDS_P2;PMS_P1;PMS_P2;Temp;Humidity;BMP_temperature;BMP_pressure;BME280_temperature;BME280_humidity;BME280_pressure;Samples;Min_cycle;Max_cycle;Signal;HPM_P1;HPM_P2
2023/11/25 00:00:16;;;;;;;0.60;0.60;;;1.70;99.90;;;;;;5112211;28;20190;-74
2023/11/25 00:02:43;;;;;;;1.80;0.50;;;1.70;99.90;;;;;;5115092;28;20201;-74
2023/11/25 00:05:11;;;;;;;1.15;0.60;;;1.70;99.90;;;;;;5106531;28;20679;-74
2023/11/25 00:07:38;;;;;;;4.70;0.88;;;1.70;99.90;;;;;;5105403;28;20531;-74
2023/11/25 00:10:07;;;;;;;1.42;0.68;;;1.70;99.90;;;;;;5105838;28;20210;-73
2023/11/25 00:12:34;;;;;;;2.05;1.63;;;1.60;99.90;;;;;;5110776;28;20202;-73
2023/11/25 00:15:01;;;;;;;1.58;1.10;;;1.70;99.90;;;;;;5111820;27;20205;-74
2023/11/25 00:17:28;;;;;;;0.95;0.50;;;1.60;99.90;;;;;;5106038;28;20229;-74
2023/11/25 00:19:56;;;;;;;0.98;0.85;;;1.70;99.90;;;;;;5113091;27;20205;-74
2023/11/25 00:22:24;;;;;;;0.30;0.30;;;1.70;99.90;;;;;;5114288;27;20202;-73
2023/11/25 00:24:52;;;;;;;0.63;0.43;;;1.70;99.90;;;;;;5109109;27;20208;-73
2023/11/25 00:27:19;;;;;;;0.98;0.98;;;1.70;99.90;;;;;;5111013;27;20209;-73
2023/11/25 00:29:47;;;;;;;4.13;1.98;;;1.70;99.90;;;;;;5108628;28;20198;-74
2023/11/25 00:32:15;;;;;;;0.40;0.40;;;1.80;99.90;;;;;;5109593;27;20224;-74
2023/11/25 00:34:43;;;;;;;0.77;0.60;;;1.80;99.90;;;;;;5108127;28;20269;-74
2023/11/25 00:37:10;;;;;;;19.60;1.25;;;1.80;99.90;;;;;;5110170;27;20222;-74
2023/11/25 00:39:38;;;;;;;0.40;0.40;;;1.90;99.90;;;;;;5109239;27;20287;-74
2023/11/25 00:42:05;;;;;;;3.22;0.85;;;1.90;99.90;;;;;;5108922;27;20633;-74
2023/11/25 00:44:32;;;;;;;1.60;1.35;;;1.90;99.90;;;;;;5108589;27;20689;-74
2023/11/25 00:47:00;;;;;;;0.40;0.40;;;1.90;99.90;;;;;;5109564;27;20217;-74
2023/11/25 00:49:27;;;;;;;6.75;0.93;;;1.90;99.90;;;;;;5108679;28;20999;-74
2023/11/25 00:51:53;;;;;;;2.95;1.88;;;1.90;99.90;;;;;;5116461;27;20513;-74
2023/11/25 00:54:20;;;;;;;2.38;0.55;;;2.00;99.90;;;;;;5109283;28;20208;-74
2023/11/25 00:56:48;;;;;;;0.85;0.60;;;1.90;99.90;;;;;;5110897;27;20225;-74
2023/11/25 00:59:15;;;;;;;5.43;0.95;;;1.90;99.90;;;;;;5108696;27;20675;-74
2023/11/25 01:01:42;;;;;;;0.73;0.73;;;1.90;99.90;;;;;;5108311;28;20207;-74
2023/11/25 01:04:10;;;;;;;1.05;0.85;;;1.90;99.90;;;;;;5102500;28;20571;-74
2023/11/25 01:06:38;;;;;;;1.27;0.80;;;1.90;99.90;;;;;;5111294;27;20282;-74
2023/11/25 01:09:07;;;;;;;0.47;0.47;;;1.90;99.90;;;;;;5116118;27;20209;-74
2023/11/25 01:11:36;;;;;;;0.80;0.60;;;1.90;99.90;;;;;;5108918;27;20299;-73
2023/11/25 01:14:05;;;;;;;1.17;1.10;;;1.90;99.90;;;;;;5114081;27;20736;-74
2023/11/25 01:16:33;;;;;;;0.65;0.65;;;1.90;99.90;;;;;;5111480;27;20233;-74
2023/11/25 01:18:59;;;;;;;0.80;0.80;;;1.90;99.90;;;;;;5109368;27;20613;-74
2023/11/25 01:21:26;;;;;;;0.50;0.50;;;1.90;99.90;;;;;;5112494;27;20656;-74
2023/11/25 01:23:53;;;;;;;0.68;0.68;;;1.90;99.90;;;;;;5108614;27;20663;-74
2023/11/25 01:26:20;;;;;;;0.75;0.55;;;1.80;99.90;;;;;;5110023;27;20656;-74
2023/11/25 01:28:47;;;;;;;0.50;0.40;;;1.80;99.90;;;;;;5107067;28;20639;-74
2023/11/25 01:31:15;;;;;;;7.78;1.40;;;1.80;99.90;;;;;;5105348;27;20758;-74
2023/11/25 01:33:42;;;;;;;6.47;1.80;;;1.70;99.90;;;;;;5110812;27;20206;-74
2023/11/25 01:36:10;;;;;;;0.55;0.55;;;1.70;99.90;;;;;;5108026;27;20214;-74
2023/11/25 01:38:36;;;;;;;0.70;0.70;;;1.70;99.90;;;;;;5104544;28;20733;-74
2023/11/25 01:41:04;;;;;;;0.60;0.50;;;1.70;99.90;;;;;;5108045;27;20306;-74
2023/11/25 01:43:46;;;;;;;0.88;0.75;;;1.60;99.90;;;;;;5103648;27;20743;-74
2023/11/25 01:46:37;;;;;;;6.93;0.77;;;1.60;99.90;;;;;;5098076;28;20205;-74
2023/11/25 01:49:20;;;;;;;1.30;0.88;;;1.70;99.90;;;;;;5081878;28;20772;-74
2023/11/25 01:51:57;;;;;;;0.77;0.77;;;1.70;99.90;;;;;;5059941;28;20204;-74
2023/11/25 01:54:28;;;;;;;3.22;0.77;;;1.70;99.90;;;;;;5065432;28;20207;-74
2023/11/25 01:56:58;;;;;;;0.40;0.40;;;1.70;99.90;;;;;;5061861;28;20195;-74
2023/11/25 01:59:26;;;;;;;0.98;0.80;;;1.70;99.90;;;;;;5062430;28;20199;-74
2023/11/25 02:01:55;;;;;;;2.45;0.60;;;1.70;99.90;;;;;;5063000;28;20253;-75
2023/11/25 02:04:23;;;;;;;2.53;0.50;;;1.60;99.90;;;;;;5068367;28;20210;-74
2023/11/25 02:06:50;;;;;;;0.95;0.85;;;1.60;99.90;;;;;;5062081;28;20191;-74
2023/11/25 02:09:18;;;;;;;1.65;1.50;;;1.60;99.90;;;;;;5062238;28;20284;-74
2023/11/25 02:11:55;;;;;;;0.75;0.75;;;1.60;99.90;;;;;;5063011;28;20208;-74
2023/11/25 02:14:24;;;;;;;1.23;1.13;;;1.70;99.90;;;;;;5062179;28;20282;-74
2023/11/25 02:16:52;;;;;;;0.45;0.45;;;1.60;99.90;;;;;;5061867;28;20200;-75
2023/11/25 02:19:20;;;;;;;0.60;0.55;;;1.70;99.90;;;;;;5062411;28;20619;-74
2023/11/25 02:21:49;;;;;;;0.40;0.40;;;1.60;99.90;;;;;;5062849;28;20677;-75
2023/11/25 02:24:19;;;;;;;0.57;0.50;;;1.70;99.90;;;;;;5062784;28;20208;-74
2023/11/25 02:26:47;;;;;;;0.85;0.70;;;1.70;99.90;;;;;;5061823;28;20779;-74
2023/11/25 02:29:17;;;;;;;1.60;0.90;;;1.70;99.90;;;;;;5061209;28;20589;-74
2023/11/25 02:31:45;;;;;;;0.60;0.60;;;1.70;99.90;;;;;;5062336;28;20612;-74
2023/11/25 02:34:12;;;;;;;0.82;0.80;;;1.70;99.90;;;;;;5062036;28;20204;-74
2023/11/25 02:36:44;;;;;;;1.08;0.98;;;1.70;99.90;;;;;;5060577;28;20578;-74
2023/11/25 02:39:11;;;;;;;0.75;0.70;;;1.60;99.90;;;;;;5060011;28;20211;-74
2023/11/25 02:41:40;;;;;;;0.82;0.82;;;1.60;99.90;;;;;;5059106;28;20201;-74
2023/11/25 02:44:08;;;;;;;1.52;1.00;;;1.50;99.90;;;;;;5061455;28;20207;-75
2023/11/25 02:46:35;;;;;;;0.70;0.70;;;1.50;99.90;;;;;;5061415;28;20756;-74
2023/11/25 02:49:02;;;;;;;0.50;0.50;;;1.40;99.90;;;;;;5060500;28;20228;-75
2023/11/25 02:51:30;;;;;;;1.40;1.30;;;1.40;99.90;;;;;;5064444;28;20257;-75
2023/11/25 02:53:57;;;;;;;1.58;0.82;;;1.30;99.90;;;;;;5065863;28;20202;-75
2023/11/25 02:56:25;;;;;;;0.60;0.60;;;1.30;99.90;;;;;;5061316;28;20302;-75
2023/11/25 02:58:53;;;;;;;0.80;0.80;;;1.20;99.90;;;;;;5057272;28;20594;-75
2023/11/25 03:01:23;;;;;;;1.85;1.25;;;1.20;99.90;;;;;;5048953;28;20212;-75
2023/11/25 03:03:53;;;;;;;1.27;1.15;;;1.20;99.90;;;;;;5048043;28;20600;-75
2023/11/25 03:06:22;;;;;;;1.27;1.17;;;1.20;99.90;;;;;;5048000;28;20224;-75
2023/11/25 03:08:49;;;;;;;1.65;1.08;;;1.20;99.90;;;;;;5047044;28;20224;-75
2023/11/25 03:11:20;;;;;;;1.45;1.30;;;1.20;99.90;;;;;;5048722;28;20291;-75
2023/11/25 03:13:47;;;;;;;1.30;1.00;;;1.20;99.90;;;;;;5047624;28;20254;-75
2023/11/25 03:16:16;;;;;;;1.67;1.45;;;1.20;99.90;;;;;;5048109;28;20209;-75
2023/11/25 03:18:42;;;;;;;1.60;1.50;;;1.20;99.90;;;;;;5047381;28;20197;-74
2023/11/25 03:21:10;;;;;;;1.80;1.02;;;1.30;99.90;;;;;;5047798;28;20200;-75
2023/11/25 03:23:37;;;;;;;1.95;0.60;;;1.30;99.90;;;;;;5048329;28;20772;-75
2023/11/25 03:26:05;;;;;;;1.60;1.50;;;1.40;99.90;;;;;;5047701;28;20204;-75
2023/11/25 03:28:32;;;;;;;1.23;1.13;;;1.40;99.90;;;;;;5047665;28;20227;-75
2023/11/25 03:31:03;;;;;;;1.65;1.48;;;1.40;99.90;;;;;;5046405;28;20207;-75
2023/11/25 03:33:31;;;;;;;4.53;0.80;;;1.50;99.90;;;;;;5046967;28;20207;-75
2023/11/25 03:35:58;;;;;;;1.08;0.65;;;1.50;99.90;;;;;;5045029;28;20631;-75
2023/11/25 03:38:25;;;;;;;1.00;1.00;;;1.50;99.90;;;;;;5046807;28;20208;-75
2023/11/25 03:40:52;;;;;;;1.73;1.65;;;1.50;99.90;;;;;;5047969;28;20197;-75
2023/11/25 03:43:21;;;;;;;1.38;1.15;;;1.50;99.90;;;;;;5047003;28;20204;-75
2023/11/25 03:45:47;;;;;;;3.45;1.45;;;1.50;99.90;;;;;;5044980;28;20287;-75
2023/11/25 03:48:15;;;;;;;1.40;1.30;;;1.50;99.90;;;;;;5046788;28;20600;-74
2023/11/25 03:50:45;;;;;;;1.13;1.02;;;1.50;99.90;;;;;;5047173;28;20203;-75
2023/11/25 03:53:11;;;;;;;2.58;1.00;;;1.50;99.90;;;;;;5046607;28;20211;-75
2023/11/25 03:55:39;;;;;;;0.82;0.60;;;1.50;99.90;;;;;;5047187;28;20210;-75
2023/11/25 03:58:06;;;;;;;1.20;1.00;;;1.50;99.90;;;;;;5047042;28;20223;-75
2023/11/25 04:00:33;;;;;;;1.15;1.05;;;1.50;99.90;;;;;;5047278;28;20229;-73
2023/11/25 04:03:00;;;;;;;1.58;0.80;;;1.50;99.90;;;;;;5046695;28;20203;-74
2023/11/25 04:05:27;;;;;;;1.52;1.05;;;1.40;99.90;;;;;;5047118;28;20286;-75
2023/11/25 04:07:55;;;;;;;1.90;1.00;;;1.40;99.90;;;;;;5046642;28;20223;-75
2023/11/25 04:10:22;;;;;;;4.13;1.20;;;1.40;99.90;;;;;;5042459;28;20208;-75
2023/11/25 04:12:52;;;;;;;2.13;1.73;;;1.40;99.90;;;;;;5045879;28;20732;-75
2023/11/25 04:15:20;;;;;;;1.45;1.25;;;1.40;99.90;;;;;;5046432;28;20204;-75
2023/11/25 04:17:47;;;;;;;2.08;1.75;;;1.40;99.90;;;;;;5046682;28;20223;-75
2023/11/25 04:20:14;;;;;;;1.15;0.60;;;1.30;99.90;;;;;;5046877;28;20204;-75
2023/11/25 04:22:44;;;;;;;0.73;0.55;;;1.30;99.90;;;;;;5046716;28;20657;-75
2023/11/25 04:25:13;;;;;;;2.65;1.48;;;1.20;99.90;;;;;;5040033;28;20283;-75
2023/11/25 04:27:41;;;;;;;1.70;1.08;;;1.30;99.90;;;;;;5046187;28;20211;-75
2023/11/25 04:30:09;;;;;;;1.90;0.60;;;1.20;99.90;;;;;;5044911;28;20211;-75
2023/11/25 04:32:36;;;;;;;1.08;0.80;;;1.30;99.90;;;;;;5046364;28;20204;-75
2023/11/25 04:35:04;;;;;;;0.82;0.70;;;1.40;99.90;;;;;;5046488;28;20206;-75
2023/11/25 04:37:31;;;;;;;0.73;0.73;;;1.50;99.90;;;;;;5045215;28;20196;-75
2023/11/25 04:39:58;;;;;;;0.60;0.60;;;1.40;99.90;;;;;;5045892;28;20227;-75
2023/11/25 04:42:26;;;;;;;0.80;0.50;;;1.40;99.90;;;;;;5042198;28;20200;-75
2023/11/25 04:44:53;;;;;;;1.23;1.13;;;1.40;99.90;;;;;;5046126;28;20192;-75
2023/11/25 04:47:20;;;;;;;1.08;0.98;;;1.40;99.90;;;;;;5045297;28;20761;-75
2023/11/25 04:49:47;;;;;;;0.85;0.85;;;1.30;99.90;;;;;;5045584;28;20254;-75
2023/11/25 04:52:14;;;;;;;0.50;0.50;;;1.30;99.90;;;;;;5046462;28;20214;-75
2023/11/25 04:54:41;;;;;;;1.30;0.98;;;1.30;99.90;;;;;;5047857;28;20715;-75
2023/11/25 04:57:08;;;;;;;1.10;0.73;;;1.40;99.90;;;;;;5045350;28;20200;-75
2023/11/25 04:59:37;;;;;;;0.93;0.70;;;1.30;99.90;;;;;;5045985;28;20193;-75
2023/11/25 05:02:04;;;;;;;1.92;1.15;;;1.30;99.90;;;;;;5045854;28;20208;-75
2023/11/25 05:04:31;;;;;;;0.40;0.40;;;1.20;99.90;;;;;;5046144;28;20246;-75
2023/11/25 05:06:58;;;;;;;0.85;0.85;;;1.20;99.90;;;;;;5045673;28;20204;-75
2023/11/25 05:09:26;;;;;;;3.70;1.20;;;1.10;99.90;;;;;;5045454;28;20226;-75
2023/11/25 05:11:53;;;;;;;0.60;0.60;;;1.00;99.90;;;;;;5045065;28;20203;-75
2023/11/25 05:14:20;;;;;;;2.25;2.15;;;1.00;99.90;;;;;;5045961;28;20200;-75
2023/11/25 05:16:48;;;;;;;0.73;0.73;;;1.00;99.90;;;;;;5045529;28;20662;-75
2023/11/25 05:19:15;;;;;;;1.10;1.05;;;1.00;99.90;;;;;;5045428;28;20204;-75
2023/11/25 05:21:42;;;;;;;0.60;0.60;;;1.10;99.90;;;;;;5045703;28;20295;-75
2023/11/25 05:24:10;;;;;;;1.48;1.00;;;1.00;99.90;;;;;;5038549;28;20584;-75
2023/11/25 05:26:37;;;;;;;0.77;0.77;;;1.10;99.90;;;;;;5045949;28;20208;-74
2023/11/25 05:29:05;;;;;;;1.83;1.65;;;1.00;99.90;;;;;;5044723;28;20231;-75
2023/11/25 05:31:33;;;;;;;0.93;0.93;;;1.10;99.90;;;;;;5044502;28;20200;-75
2023/11/25 05:34:03;;;;;;;1.38;0.65;;;1.00;99.90;;;;;;5045685;28;20196;-75
2023/11/25 05:36:30;;;;;;;0.40;0.40;;;1.00;99.90;;;;;;5041690;28;20196;-75
2023/11/25 05:38:57;;;;;;;0.40;0.40;;;0.90;99.90;;;;;;5044638;28;20299;-75
2023/11/25 05:41:25;;;;;;;2.53;0.85;;;0.90;99.90;;;;;;5044809;28;20201;-75
2023/11/25 05:43:52;;;;;;;0.80;0.80;;;0.90;99.90;;;;;;5043040;28;20615;-75
2023/11/25 05:46:23;;;;;;;1.65;1.55;;;0.80;99.90;;;;;;5045499;28;20207;-75
2023/11/25 05:48:52;;;;;;;0.98;0.88;;;0.80;99.90;;;;;;5044324;28;20241;-75
2023/11/25 05:51:22;;;;;;;18.55;1.98;;;0.80;99.90;;;;;;5044884;28;20649;-75
2023/11/25 05:53:49;;;;;;;2.45;1.00;;;0.70;99.90;;;;;;5046672;28;20200;-75
2023/11/25 05:56:20;;;;;;;0.55;0.55;;;0.70;99.90;;;;;;5044855;28;20200;-75
2023/11/25 05:58:47;;;;;;;1.83;1.30;;;0.70;99.90;;;;;;5044921;28;20297;-75
2023/11/25 06:01:14;;;;;;;1.13;1.00;;;0.70;99.90;;;;;;5045735;28;20214;-75
2023/11/25 06:03:42;;;;;;;0.82;0.80;;;0.70;99.90;;;;;;5041003;28;20210;-75
2023/11/25 06:06:10;;;;;;;0.80;0.60;;;0.70;99.90;;;;;;5045168;28;20204;-75
2023/11/25 06:08:38;;;;;;;0.73;0.73;;;0.70;99.90;;;;;;5044425;28;20220;-76
2023/11/25 06:11:05;;;;;;;1.05;0.98;;;0.70;99.90;;;;;;5045437;28;20194;-75
2023/11/25 06:13:32;;;;;;;0.80;0.80;;;0.70;99.90;;;;;;5045266;28;20306;-75
2023/11/25 06:15:59;;;;;;;1.00;0.95;;;0.70;99.90;;;;;;5044100;28;20210;-74
2023/11/25 06:18:25;;;;;;;1.77;1.30;;;0.70;99.90;;;;;;5043765;28;20204;-74
2023/11/25 06:20:52;;;;;;;1.08;0.95;;;0.70;99.90;;;;;;5044735;28;20218;-74
2023/11/25 06:23:19;;;;;;;0.82;0.82;;;0.70;99.90;;;;;;5044948;28;20204;-75
2023/11/25 06:25:47;;;;;;;0.40;0.40;;;0.70;99.90;;;;;;5045353;28;20208;-74
2023/11/25 06:28:14;;;;;;;2.20;0.80;;;0.80;99.90;;;;;;5044302;28;20283;-75
2023/11/25 06:30:41;;;;;;;1.60;1.05;;;0.90;99.90;;;;;;5044398;28;20594;-74
2023/11/25 06:33:08;;;;;;;1.98;1.00;;;1.00;99.90;;;;;;5044596;28;20207;-75
2023/11/25 06:35:36;;;;;;;1.67;0.85;;;1.10;99.90;;;;;;5049519;28;20201;-74
2023/11/25 06:38:04;;;;;;;0.77;0.70;;;1.10;99.90;;;;;;5047648;28;20227;-75
2023/11/25 06:40:33;;;;;;;1.38;0.93;;;1.20;99.90;;;;;;5048423;28;20208;-75
2023/11/25 06:43:01;;;;;;;2.05;1.00;;;1.20;99.90;;;;;;5044422;28;20200;-75
2023/11/25 06:45:28;;;;;;;1.38;0.98;;;1.20;99.90;;;;;;5048118;28;20211;-75
2023/11/25 06:47:55;;;;;;;0.50;0.45;;;1.20;99.90;;;;;;5047773;28;20287;-76
2023/11/25 06:50:22;;;;;;;1.80;1.70;;;1.30;99.90;;;;;;5048279;28;20332;-72
2023/11/25 06:52:49;;;;;;;0.88;0.70;;;1.30;99.90;;;;;;5048562;28;20204;-74
2023/11/25 06:55:16;;;;;;;0.85;0.50;;;1.20;99.90;;;;;;5049860;28;20196;-73
2023/11/25 06:57:43;;;;;;;1.92;1.70;;;1.30;99.90;;;;;;5048182;28;20200;-74
2023/11/25 07:00:13;;;;;;;0.77;0.77;;;1.30;99.90;;;;;;5040123;28;20203;-74
2023/11/25 07:02:40;;;;;;;1.95;1.00;;;1.40;99.90;;;;;;5038265;28;20200;-74
2023/11/25 07:05:08;;;;;;;1.73;1.30;;;1.50;99.90;;;;;;5042926;28;20669;-74
2023/11/25 07:07:35;;;;;;;1.00;0.90;;;1.50;99.90;;;;;;5041024;28;20661;-74
2023/11/25 07:10:03;;;;;;;1.48;1.05;;;1.40;99.90;;;;;;5043135;28;20751;-75
2023/11/25 07:12:30;;;;;;;1.45;0.80;;;1.40;99.90;;;;;;5043617;28;20204;-78
2023/11/25 07:14:58;;;;;;;0.90;0.80;;;1.40;99.90;;;;;;5040545;28;20610;-74
2023/11/25 07:17:26;;;;;;;0.63;0.40;;;1.30;99.90;;;;;;5035230;28;20200;-74
2023/11/25 07:19:53;;;;;;;0.50;0.50;;;1.40;99.90;;;;;;5047046;28;20261;-74
2023/11/25 07:22:20;;;;;;;0.70;0.63;;;1.40;99.90;;;;;;5046318;28;20201;-76
2023/11/25 07:24:47;;;;;;;0.60;0.60;;;1.40;99.90;;;;;;5032187;28;20208;-76
2023/11/25 07:27:18;;;;;;;0.82;0.80;;;1.40;99.90;;;;;;5036677;28;20196;-73
2023/11/25 07:29:45;;;;;;;1.50;0.93;;;1.40;99.90;;;;;;5043427;28;20235;-73
2023/11/25 07:32:12;;;;;;;2.03;1.00;;;1.40;99.90;;;;;;5036085;28;20204;-74
2023/11/25 07:34:40;;;;;;;1.15;0.60;;;1.40;99.90;;;;;;5041906;28;20192;-73
2023/11/25 07:37:07;;;;;;;1.95;0.90;;;1.40;99.90;;;;;;5045286;28;20650;-72
2023/11/25 07:39:35;;;;;;;0.60;0.60;;;1.50;99.90;;;;;;5045261;28;20200;-72
2023/11/25 07:42:02;;;;;;;1.15;0.70;;;1.40;99.90;;;;;;5041188;28;20288;-71
2023/11/25 07:44:30;;;;;;;0.77;0.70;;;1.50;99.90;;;;;;5045988;28;20226;-72
2023/11/25 07:46:57;;;;;;;4.28;0.80;;;1.50;99.90;;;;;;5043288;28;20626;-71
2023/11/25 07:49:24;;;;;;;1.20;1.00;;;1.50;99.90;;;;;;5045184;28;20226;-72
2023/11/25 07:51:52;;;;;;;0.80;0.80;;;1.50;99.90;;;;;;5043446;28;20196;-71
2023/11/25 07:54:18;;;;;;;0.60;0.60;;;1.50;99.90;;;;;;5044944;28;20696;-70
2023/11/25 07:56:47;;;;;;;0.80;0.80;;;1.50;99.90;;;;;;5040524;28;20196;-70
2023/11/25 07:59:14;;;;;;;0.93;0.75;;;1.50;99.90;;;;;;5040452;28;20243;-74
2023/11/25 08:01:41;;;;;;;1.38;1.20;;;1.50;99.90;;;;;;5040060;28;20709;-79
2023/11/25 08:04:07;;;;;;;1.98;1.33;;;1.50;99.90;;;;;;5047465;28;20196;-77
2023/11/25 08:06:34;;;;;;;3.58;2.17;;;1.50;99.90;;;;;;5040009;28;20200;-83
2023/11/25 08:09:02;;;;;;;4.07;1.40;;;1.70;99.90;;;;;;5046731;28;20783;-82
2023/11/25 08:11:32;;;;;;;1.83;1.52;;;1.60;99.90;;;;;;5047468;28;20540;-76
2023/11/25 08:13:59;;;;;;;1.70;1.02;;;1.60;99.90;;;;;;5045316;28;20287;-75
2023/11/25 08:16:25;;;;;;;12.40;1.45;;;1.60;99.90;;;;;;5043984;28;20204;-75
2023/11/25 08:18:52;;;;;;;1.27;1.15;;;1.60;99.90;;;;;;5041423;28;20737;-75
2023/11/25 08:21:19;;;;;;;2.95;1.23;;;1.70;99.90;;;;;;5046736;28;20204;-75
2023/11/25 08:23:46;;;;;;;1.13;0.65;;;1.70;99.90;;;;;;5047147;28;20201;-75
2023/11/25 08:26:25;;;;;;;2.15;0.95;;;1.70;99.90;;;;;;5039647;28;20684;-75
2023/11/25 08:28:53;;;;;;;7.82;1.70;;;1.70;99.90;;;;;;5046972;28;20685;-76
2023/11/25 08:31:21;;;;;;;2.75;1.58;;;1.70;99.90;;;;;;5047149;28;20307;-75
2023/11/25 08:33:48;;;;;;;1.85;1.13;;;1.70;99.90;;;;;;5046294;28;20204;-75
2023/11/25 08:36:17;;;;;;;1.55;1.05;;;1.80;99.90;;;;;;5045110;28;20199;-76
2023/11/25 08:38:44;;;;;;;1.45;1.00;;;1.80;99.90;;;;;;5046058;28;20204;-75
2023/11/25 08:41:11;;;;;;;0.75;0.63;;;1.80;99.90;;;;;;5048780;28;20314;-76
2023/11/25 08:43:43;;;;;;;1.98;1.13;;;1.90;99.90;;;;;;5048158;28;20203;-75
2023/11/25 08:46:10;;;;;;;0.80;0.80;;;2.00;99.90;;;;;;5046069;28;20223;-75
2023/11/25 08:48:37;;;;;;;1.58;1.25;;;2.00;99.90;;;;;;5051007;28;20304;-76
2023/11/25 08:51:05;;;;;;;1.42;1.35;;;2.00;99.90;;;;;;5045005;28;20478;-75
2023/11/25 08:53:32;;;;;;;1.20;0.93;;;2.10;99.90;;;;;;5044896;28;20670;-76
2023/11/25 08:56:02;;;;;;;3.83;1.60;;;2.10;99.90;;;;;;5043208;28;20295;-76
2023/11/25 08:58:29;;;;;;;0.50;0.50;;;2.10;99.90;;;;;;5045319;28;20574;-76
2023/11/25 09:00:57;;;;;;;1.35;0.40;;;2.10;99.90;;;;;;5045571;28;20205;-76
2023/11/25 09:03:24;;;;;;;1.42;1.05;;;2.10;99.90;;;;;;5046551;28;20200;-75
2023/11/25 09:05:51;;;;;;;1.27;0.95;;;2.10;99.90;;;;;;5046014;28;20204;-76
2023/11/25 09:08:18;;;;;;;0.80;0.80;;;2.20;99.90;;;;;;5043224;28;20307;-75
2023/11/25 09:10:45;;;;;;;0.95;0.95;;;2.20;99.90;;;;;;5045482;28;20225;-76
2023/11/25 09:13:11;;;;;;;0.93;0.50;;;2.30;99.90;;;;;;5043289;28;20231;-75
2023/11/25 09:15:38;;;;;;;1.38;0.60;;;2.30;99.90;;;;;;5041753;28;20205;-76
2023/11/25 09:18:07;;;;;;;5.60;1.33;;;2.30;99.90;;;;;;5039994;28;20535;-75
2023/11/25 09:20:37;;;;;;;1.65;0.95;;;2.40;99.90;;;;;;5044381;28;20208;-76
2023/11/25 09:23:07;;;;;;;0.60;0.52;;;2.40;99.90;;;;;;5044940;28;20231;-78
2023/11/25 09:25:38;;;;;;;2.05;1.23;;;2.50;99.90;;;;;;5043415;28;20205;-78
2023/11/25 09:28:08;;;;;;;1.10;1.00;;;2.50;99.90;;;;;;5031355;28;20658;-78
2023/11/25 09:30:35;;;;;;;3.00;1.88;;;2.50;99.90;;;;;;5041143;28;20238;-78
2023/11/25 09:33:04;;;;;;;2.50;0.80;;;2.50;99.90;;;;;;5038467;28;20846;-79
2023/11/25 09:35:34;;;;;;;1.30;1.15;;;2.60;99.90;;;;;;5043653;28;20668;-80
2023/11/25 09:38:03;;;;;;;0.80;0.60;;;2.50;99.90;;;;;;5042960;28;20282;-80
2023/11/25 09:40:31;;;;;;;1.98;1.30;;;2.60;99.90;;;;;;5033927;28;20216;-79
2023/11/25 09:42:59;;;;;;;0.80;0.80;;;2.60;99.90;;;;;;5041475;28;20208;-79
2023/11/25 09:45:29;;;;;;;0.88;0.88;;;2.60;99.90;;;;;;5042733;28;20200;-80
2023/11/25 09:47:56;;;;;;;4.10;1.48;;;2.60;99.90;;;;;;5043213;28;20223;-80
2023/11/25 09:50:25;;;;;;;0.77;0.75;;;2.60;99.90;;;;;;5041298;28;20234;-79
2023/11/25 09:52:55;;;;;;;1.52;0.60;;;2.50;99.90;;;;;;5044771;28;20688;-79
2023/11/25 09:55:23;;;;;;;6.38;1.08;;;2.60;99.90;;;;;;5043620;28;20923;-79
2023/11/25 09:57:54;;;;;;;0.98;0.98;;;2.70;99.90;;;;;;5040813;28;20197;-79
2023/11/25 10:00:26;;;;;;;0.65;0.65;;;2.70;99.90;;;;;;5045378;28;20263;-79
2023/11/25 10:02:56;;;;;;;1.55;1.38;;;2.70;99.90;;;;;;5042882;28;20200;-79
2023/11/25 10:05:24;;;;;;;2.97;1.00;;;2.90;99.90;;;;;;5042384;28;20312;-79
2023/11/25 10:07:51;;;;;;;3.85;1.38;;;3.00;99.90;;;;;;5039445;28;20202;-78
2023/11/25 10:10:23;;;;;;;1.88;1.75;;;3.10;99.90;;;;;;5047880;28;20986;-79
2023/11/25 10:12:50;;;;;;;1.45;1.35;;;3.30;99.90;;;;;;5043478;28;20270;-79
2023/11/25 10:15:17;;;;;;;2.08;1.35;;;3.20;99.90;;;;;;5038382;28;20207;-79
2023/11/25 10:17:45;;;;;;;0.65;0.65;;;3.30;99.90;;;;;;5043357;28;20229;-79
2023/11/25 10:20:18;;;;;;;1.00;1.00;;;3.30;99.90;;;;;;5035307;28;20247;-79
2023/11/25 10:22:49;;;;;;;1.65;1.10;;;3.30;99.90;;;;;;5036115;28;20203;-79
2023/11/25 10:25:19;;;;;;;2.08;1.52;;;3.30;99.90;;;;;;5036629;28;20198;-79
2023/11/25 10:27:47;;;;;;;3.28;0.80;;;3.30;99.90;;;;;;5038437;28;20254;-81
2023/11/25 10:30:20;;;;;;;1.95;1.15;;;3.30;99.90;;;;;;5037060;28;20232;-81
2023/11/25 10:32:49;;;;;;;1.13;0.95;;;3.30;99.90;;;;;;5045682;28;20209;-79
2023/11/25 10:35:16;;;;;;;1.05;0.80;;;3.40;99.90;;;;;;5045256;28;20192;-77
2023/11/25 10:37:42;;;;;;;2.45;1.23;;;3.30;99.90;;;;;;5045571;28;20224;-79
2023/11/25 10:40:10;;;;;;;0.95;0.80;;;3.40;99.90;;;;;;5048180;28;20210;-78
2023/11/25 10:42:41;;;;;;;1.15;0.98;;;3.60;99.90;;;;;;5042834;28;20194;-78
2023/11/25 10:45:15;;;;;;;1.08;0.77;;;3.60;99.90;;;;;;5044557;28;20206;-77
2023/11/25 10:47:43;;;;;;;2.33;1.52;;;3.60;99.90;;;;;;5038648;28;20206;-79
2023/11/25 10:50:13;;;;;;;6.80;3.97;;;3.70;99.90;;;;;;5043691;28;20233;-78
2023/11/25 10:52:42;;;;;;;6.97;1.30;;;3.70;99.90;;;;;;5045643;28;20190;-79
2023/11/25 10:55:10;;;;;;;1.00;1.00;;;3.70;99.90;;;;;;5045529;28;20868;-78
2023/11/25 10:57:40;;;;;;;2.30;1.13;;;3.80;99.90;;;;;;5039134;28;20202;-79
2023/11/25 11:00:12;;;;;;;2.00;1.88;;;4.00;99.90;;;;;;5047302;28;20210;-79
2023/11/25 11:02:45;;;;;;;1.23;1.00;;;4.20;99.90;;;;;;5036315;28;20543;-79
2023/11/25 11:05:18;;;;;;;0.60;0.60;;;4.30;99.90;;;;;;5044509;28;20199;-78
2023/11/25 11:07:49;;;;;;;6.38;0.90;;;4.40;99.40;;;;;;5043778;28;20206;-79
2023/11/25 11:10:21;;;;;;;2.50;1.00;;;4.40;98.90;;;;;;5037088;28;20235;-79
2023/11/25 11:12:59;;;;;;;1.38;0.55;;;4.40;99.20;;;;;;5041360;28;20216;-78
2023/11/25 11:15:28;;;;;;;6.93;1.25;;;4.40;98.50;;;;;;5037152;28;20301;-79
2023/11/25 11:18:06;;;;;;;2.45;1.17;;;4.40;99.00;;;;;;5040889;28;20258;-78
2023/11/25 11:20:39;;;;;;;1.67;1.17;;;4.40;99.10;;;;;;5040297;28;20206;-78
2023/11/25 11:23:06;;;;;;;0.60;0.60;;;4.20;98.10;;;;;;5037092;28;20214;-79
2023/11/25 11:25:40;;;;;;;2.55;0.65;;;4.00;98.60;;;;;;5048125;28;20556;-79
2023/11/25 11:28:17;;;;;;;2.75;1.75;;;3.80;98.70;;;;;;5029569;28;20680;-78
2023/11/25 11:30:56;;;;;;;4.43;1.02;;;4.00;99.60;;;;;;5044443;28;20232;-79
2023/11/25 11:33:25;;;;;;;1.30;1.15;;;4.10;99.70;;;;;;5040721;28;20198;-78
2023/11/25 11:35:52;;;;;;;3.78;1.27;;;4.10;99.40;;;;;;5045636;28;20560;-78
2023/11/25 11:38:24;;;;;;;0.73;0.70;;;4.20;99.40;;;;;;5039684;28;20719;-78
2023/11/25 11:40:53;;;;;;;6.18;1.55;;;4.20;98.80;;;;;;5047644;28;20829;-78
2023/11/25 11:43:21;;;;;;;1.02;1.02;;;4.00;99.10;;;;;;5039875;28;20202;-78
2023/11/25 11:45:49;;;;;;;0.60;0.60;;;3.80;99.00;;;;;;5046213;28;20288;-78
2023/11/25 11:48:16;;;;;;;0.85;0.85;;;3.70;99.40;;;;;;5047188;28;20208;-79
2023/11/25 11:50:44;;;;;;;3.25;1.25;;;3.70;99.80;;;;;;5042100;28;20315;-79
2023/11/25 11:53:15;;;;;;;6.82;1.13;;;3.70;99.90;;;;;;5046507;28;20224;-78
2023/11/25 11:55:44;;;;;;;3.90;0.93;;;3.70;99.90;;;;;;5045601;28;20198;-78
2023/11/25 11:58:13;;;;;;;1.90;1.75;;;3.60;99.90;;;;;;5041902;28;21017;-78
2023/11/25 12:00:49;;;;;;;1.45;0.68;;;3.60;99.90;;;;;;5039410;28;20709;-79
2023/11/25 12:03:17;;;;;;;1.15;1.05;;;3.40;99.90;;;;;;5044129;28;20189;-77
2023/11/25 12:05:44;;;;;;;7.45;1.23;;;3.30;99.90;;;;;;5047145;28;20205;-77
2023/11/25 12:08:11;;;;;;;3.90;0.60;;;2.90;99.90;;;;;;5044337;28;20287;-77
2023/11/25 12:10:39;;;;;;;0.38;0.35;;;2.90;99.90;;;;;;5044592;28;20221;-77
2023/11/25 12:13:08;;;;;;;2.05;0.60;;;2.90;99.90;;;;;;5042101;28;20198;-77
2023/11/25 12:15:35;;;;;;;0.68;0.68;;;2.80;99.90;;;;;;5046863;28;20204;-77
2023/11/25 12:18:05;;;;;;;2.15;1.02;;;2.90;99.90;;;;;;5046882;28;20207;-77
2023/11/25 12:20:32;;;;;;;1.45;1.20;;;2.90;99.90;;;;;;5046565;28;20604;-76
2023/11/25 12:23:06;;;;;;;0.75;0.75;;;2.90;99.90;;;;;;5046026;28;20196;-76
2023/11/25 12:25:35;;;;;;;3.67;1.25;;;3.00;99.90;;;;;;5047229;28;20200;-77
2023/11/25 12:28:06;;;;;;;0.50;0.50;;;3.00;99.90;;;;;;5046764;28;20559;-76
2023/11/25 12:30:35;;;;;;;0.70;0.70;;;2.90;99.90;;;;;;5046051;28;20220;-76
2023/11/25 12:33:03;;;;;;;0.60;0.60;;;3.00;99.90;;;;;;5045748;28;20193;-76
2023/11/25 12:35:30;;;;;;;0.80;0.80;;;2.90;99.90;;;;;;5046008;28;20301;-76
2023/11/25 12:37:57;;;;;;;1.10;0.93;;;2.80;99.90;;;;;;5044605;28;20292;-76
2023/11/25 12:40:25;;;;;;;0.80;0.63;;;2.80;99.90;;;;;;5046331;28;20205;-77
2023/11/25 12:42:53;;;;;;;2.85;0.82;;;2.80;99.90;;;;;;5042217;28;20396;-77
2023/11/25 12:45:33;;;;;;;1.00;1.00;;;2.70;99.90;;;;;;5046481;28;20207;-77
2023/11/25 12:48:02;;;;;;;0.50;0.50;;;2.70;99.90;;;;;;5046022;28;20211;-77
2023/11/25 12:50:31;;;;;;;1.02;0.65;;;2.80;99.90;;;;;;5039163;28;20200;-78
2023/11/25 12:53:09;;;;;;;2.22;1.40;;;2.80;99.90;;;;;;5040940;28;20274;-76
2023/11/25 12:55:40;;;;;;;0.85;0.77;;;2.80;99.90;;;;;;5040404;28;20582;-78
2023/11/25 12:58:08;;;;;;;1.88;0.85;;;2.90;99.90;;;;;;5043451;28;20215;-76
2023/11/25 13:00:36;;;;;;;1.85;0.73;;;3.00;99.90;;;;;;5044663;28;20572;-76
2023/11/25 13:03:04;;;;;;;2.80;1.20;;;3.10;99.90;;;;;;5043473;28;20740;-75